Time;durP1;ratioP1;P1;durP2;ratioP2;P2;SDS_P1;SDS_P2;PMS_P1;PMS_P2;Temp;Humidity;BMP_temperature;BMP_pressure;BME280_temperature;BME280_humidity;BME280_pressure;Samples;Min_cycle;Max_cycle;Signal;HPM_P1;HPM_P2
2022/12/21 00:00:19;;;;;;;;;8.33;5.67;;;;;13.88;94.82;59064.97;5004703;28;45543;-86
2022/12/21 00:02:44;;;;;;;;;4.67;4.67;;;;;14.45;94.94;59571.22;5019931;28;45493;-87
2022/12/21 00:05:10;;;;;;;;;5.33;5.33;;;;;14.45;95.17;59189.00;5015010;28;45504;-87
2022/12/21 00:07:35;;;;;;;;;4.67;3.00;;;;;14.33;95.36;59649.00;5014284;28;46904;-87
2022/12/21 00:10:01;;;;;;;;;3.33;3.33;;;;;13.60;95.11;60142.59;5017629;28;45487;-85
2022/12/21 00:12:26;;;;;;;;;4.67;4.67;;;;;14.48;95.65;59799.44;5008036;28;45534;-88
2022/12/21 00:14:52;;;;;;;;;5.67;5.67;;;;;13.93;94.84;59457.84;5021280;28;45460;-87
2022/12/21 00:17:17;;;;;;;;;4.00;4.00;;;;;14.33;94.83;58696.88;5018576;28;46144;-86
2022/12/21 00:19:43;;;;;;;;;6.67;6.00;;;;;14.47;94.83;58145.44;5018070;28;45502;-85
2022/12/21 00:22:09;;;;;;;;;5.67;5.33;;;;;14.48;94.90;58114.09;5019047;28;45749;-85
2022/12/21 00:24:34;;;;;;;;;9.00;5.33;;;;;14.15;95.27;59108.19;5018961;28;45494;-89
2022/12/21 00:27:01;;;;;;;;;7.33;5.33;;;;;14.47;95.21;59519.66;5017113;28;47219;-87
2022/12/21 00:29:26;;;;;;;;;5.33;5.33;;;;;14.44;95.39;60193.97;5018377;28;45553;-87
2022/12/21 00:31:53;;;;;;;;;3.00;3.00;;;;;14.10;95.74;60239.00;5018627;28;45875;-87
2022/12/21 00:34:19;;;;;;;;;9.33;7.00;;;;;14.15;95.75;60695.38;5018335;28;45476;-86
2022/12/21 00:36:46;;;;;;;;;3.67;3.67;;;;;14.08;95.47;60481.03;5018113;28;45997;-86
2022/12/21 00:39:13;;;;;;;;;4.00;4.00;;;;;14.05;95.26;60546.34;5011636;28;45424;-86
2022/12/21 00:41:38;;;;;;;;;7.00;7.00;;;;;13.99;95.26;60259.31;5018698;28;45396;-88
2022/12/21 00:44:04;;;;;;;;;5.00;5.00;;;;;13.84;95.56;60434.56;5016004;28;45612;-86
2022/12/21 00:46:31;;;;;;;;;7.33;4.33;;;;;13.99;95.84;60911.44;5004568;28;47940;-86
2022/12/21 00:48:58;;;;;;;;;8.00;7.00;;;;;13.22;95.66;60760.41;5017843;28;45304;-86
2022/12/21 00:51:25;;;;;;;;;10.67;7.00;;;;;14.06;95.96;61826.50;5018575;28;45332;-85
2022/12/21 00:53:53;;;;;;;;;7.00;5.67;;;;;14.41;96.04;61231.59;5018613;28;45417;-85
2022/12/21 00:56:18;;;;;;;;;4.00;4.00;;;;;14.41;95.89;61563.50;5016978;28;45438;-86
2022/12/21 00:58:44;;;;;;;;;6.33;5.67;;;;;14.42;96.14;62437.81;5017575;28;45412;-86
2022/12/21 01:01:22;;;;;;;;;7.00;7.00;;;;;14.42;95.86;62031.44;5018505;28;45374;-85
2022/12/21 01:03:48;;;;;;;;;5.67;5.33;;;;;14.44;96.10;62594.06;5023968;28;45603;-86
2022/12/21 01:06:33;;;;;;;;;4.33;4.33;;;;;14.27;95.71;61567.13;5020654;28;46957;-87
2022/12/21 01:08:59;;;;;;;;;7.00;7.00;;;;;14.45;95.74;61575.22;5015607;28;45845;-86
2022/12/21 01:11:28;;;;;;;;;5.33;5.33;;;;;14.46;96.14;62208.94;5018129;28;45829;-87
2022/12/21 01:13:54;;;;;;;;;6.33;6.33;;;;;13.76;96.04;62198.06;5018264;28;45437;-86
2022/12/21 01:16:29;;;;;;;;;7.00;6.33;;;;;14.47;95.61;61017.03;5015271;28;47366;-88
2022/12/21 01:18:54;;;;;;;;;4.00;4.00;;;;;13.90;95.66;60496.56;5017929;28;45435;-88
2022/12/21 01:21:23;;;;;;;;;7.00;4.00;;;;;14.13;95.64;60799.44;5017092;28;45419;-88
2022/12/21 01:23:49;;;;;;;;;5.33;5.33;;;;;14.11;95.27;59826.16;5001379;28;45564;-86
2022/12/21 01:26:15;;;;;;;;;3.00;3.00;;;;;13.69;95.38;60008.81;4997823;28;46003;-86
2022/12/21 01:28:40;;;;;;;;;5.33;4.00;;;;;14.49;95.37;60488.09;4999625;28;45555;-88
2022/12/21 01:31:06;;;;;;;;;5.33;5.33;;;;;14.49;95.84;60528.47;4997736;28;45481;-88
2022/12/21 01:33:32;;;;;;;;;2.67;2.67;;;;;14.54;95.47;60334.06;4998312;28;45404;-86
2022/12/21 01:36:09;;;;;;;;;5.33;5.33;;;;;13.16;95.43;60264.44;4997371;28;45395;-87
2022/12/21 01:38:36;;;;;;;;;4.00;4.00;;;;;14.55;95.72;60165.69;4997511;28;45253;-86
2022/12/21 01:41:02;;;;;;;;;7.00;7.00;;;;;14.14;95.37;59937.53;4988665;28;45506;-86
2022/12/21 01:43:43;;;;;;;;;4.00;4.00;;;;;14.55;95.56;59528.50;4990296;28;45492;-87
2022/12/21 01:46:30;;;;;;;;;5.67;5.67;;;;;14.23;95.37;59304.78;4986173;28;47256;-87
2022/12/21 01:49:14;;;;;;;;;5.33;5.33;;;;;14.55;95.54;58814.44;4997438;28;45478;-86
2022/12/21 01:51:42;;;;;;;;;3.33;3.33;;;;;14.54;95.13;57979.56;4997484;28;45397;-88
2022/12/21 01:54:13;;;;;;;;;2.67;2.67;;;;;14.50;94.78;55574.78;4989018;28;45458;-88
2022/12/21 01:56:40;;;;;;;;;3.33;2.00;;;;;14.48;94.11;52546.09;4997162;28;45461;-88
2022/12/21 01:59:16;;;;;;;;;0.67;0.67;;;;;14.43;93.17;49500.94;4985459;28;45304;-87
2022/12/21 02:01:42;;;;;;;;;1.67;1.67;;;;;13.70;92.40;47292.53;4996212;28;45456;-88
2022/12/21 02:04:07;;;;;;;;;1.00;1.00;;;;;14.38;91.87;44585.81;4997680;28;45836;-87
2022/12/21 02:06:40;;;;;;;;;0.00;0.00;;;;;14.35;91.60;43465.63;4997012;28;46266;-88
2022/12/21 02:09:07;;;;;;;;;0.00;0.00;;;;;13.40;91.31;42037.84;4997535;28;45374;-87
2022/12/21 02:11:32;;;;;;;;;0.67;0.67;;;;;13.76;91.23;41182.75;4997320;28;45458;-88
2022/12/21 02:13:58;;;;;;;;;0.00;0.00;;;;;14.23;91.09;40257.47;4997744;28;45517;-87
2022/12/21 02:16:39;;;;;;;;;0.00;0.00;;;;;14.21;90.52;38445.13;5010883;28;47053;-88
2022/12/21 02:19:24;;;;;;;;;0.00;0.00;;;;;14.18;90.78;38530.50;4996982;28;45462;-88
2022/12/21 02:21:56;;;;;;;;;1.67;0.00;;;;;14.17;90.44;37988.50;4990480;28;45434;-88
2022/12/21 02:24:53;;;;;;;;;1.67;0.33;;;;;14.09;90.08;36066.13;5010214;28;45510;-87
2022/12/21 02:27:40;;;;;;;;;0.00;0.00;;;;;14.04;89.80;32707.25;5010005;28;46964;-87
2022/12/21 02:30:14;;;;;;;;;1.00;0.33;;;;;13.98;89.18;29699.06;4998169;28;45357;-87
2022/12/21 02:32:58;;;;;;;;;0.33;0.00;;;;;13.92;89.05;29385.50;5013763;28;45374;-87
2022/12/21 02:35:26;;;;;;;;;0.00;0.00;;;;;13.86;89.16;30090.25;5015750;28;45377;-87
2022/12/21 02:38:09;;;;;;;;;0.67;0.67;;;;;13.44;89.26;30799.38;5010885;28;45468;-87
2022/12/21 02:41:12;;;;;;;;;1.33;1.33;;;;;13.73;89.11;30809.78;5011059;28;45497;-87
2022/12/21 02:44:14;;;;;;;;;0.67;0.67;;;;;13.66;89.07;30345.63;5016627;28;45410;-87
2022/12/21 02:47:22;;;;;;;;;0.67;0.67;;;;;13.40;89.16;31128.34;5008919;28;45491;-87
2022/12/21 02:50:10;;;;;;;;;1.00;0.67;;;;;13.43;89.10;31803.91;4946689;28;46674;-86
2022/12/21 02:52:41;;;;;;;;;0.33;0.33;;;;;13.50;89.05;31563.19;4945743;28;45544;-87
2022/12/21 02:55:10;;;;;;;;;1.67;0.33;;;;;13.21;88.99;31649.44;4954849;28;45374;-87
2022/12/21 02:57:42;;;;;;;;;0.33;0.33;;;;;13.41;89.21;31555.13;4954848;28;45531;-87
2022/12/21 03:00:19;;;;;;;;;0.67;0.67;;;;;12.92;88.98;31338.34;4954921;28;45599;-87
2022/12/21 03:06:07;;;;;;;;;1.00;1.00;;;;;13.28;89.03;32681.94;4955208;28;45478;-87
2022/12/21 03:09:07;;;;;;;;;1.00;1.00;;;;;12.96;89.28;34389.28;4950450;28;46041;-88
2022/12/21 03:12:14;;;;;;;;;1.33;1.33;;;;;12.96;89.21;33847.00;4945531;28;46323;-86
2022/12/21 03:14:47;;;;;;;;;1.00;1.00;;;;;13.18;89.44;35018.59;4942806;28;45820;-86
2022/12/21 03:17:15;;;;;;;;;1.00;1.00;;;;;13.16;89.42;35217.06;4954083;28;45696;-86
2022/12/21 03:19:52;;;;;;;;;1.00;1.00;;;;;13.13;89.64;35696.94;4948310;28;45472;-86
2022/12/21 03:22:30;;;;;;;;;0.00;0.00;;;;;13.09;89.83;35826.66;5015587;28;45449;-87
2022/12/21 03:25:07;;;;;;;;;3.67;2.00;;;;;12.47;89.26;35174.69;5016427;28;45440;-88
2022/12/21 03:27:39;;;;;;;;;2.00;2.00;;;;;12.77;89.37;35740.63;5010141;28;45509;-88
2022/12/21 03:30:09;;;;;;;;;2.00;2.00;;;;;12.99;89.44;35670.19;5017375;28;45416;-88
2022/12/21 03:32:45;;;;;;;;;1.33;1.33;;;;;12.74;89.72;35996.25;5007844;28;47776;-88
2022/12/21 03:35:20;;;;;;;;;1.00;1.00;;;;;12.95;89.30;34685.69;5019724;28;45497;-87
2022/12/21 03:37:49;;;;;;;;;1.00;1.00;;;;;12.92;89.15;34439.44;5015917;28;45558;-88
2022/12/21 03:40:21;;;;;;;;;1.00;1.00;;;;;12.54;89.65;35294.81;5017620;28;45347;-88
2022/12/21 03:43:03;;;;;;;;;2.00;0.67;;;;;12.91;89.18;34638.78;5018497;28;46022;-88
2022/12/21 03:45:35;;;;;;;;;1.00;1.00;;;;;12.44;89.57;34654.81;5007431;28;45793;-87
2022/12/21 03:48:08;;;;;;;;;1.00;1.00;;;;;12.55;89.64;35647.59;5012595;28;45494;-86
2022/12/21 03:50:38;;;;;;;;;2.00;2.00;;;;;12.74;89.51;35254.28;5021523;28;45487;-86
2022/12/21 03:53:44;;;;;;;;;1.67;1.00;;;;;12.88;89.20;34426.75;5013944;28;46262;-86
2022/12/21 03:56:18;;;;;;;;;2.00;2.00;;;;;12.89;88.82;32654.22;5015824;28;45581;-87
2022/12/21 03:58:44;;;;;;;;;1.00;1.00;;;;;12.86;88.98;33015.34;5017878;28;45640;-86
2022/12/21 04:01:31;;;;;;;;;1.00;1.00;;;;;12.62;89.00;33448.25;5022483;28;45515;-86
2022/12/21 04:04:05;;;;;;;;;1.00;1.00;;;;;12.81;89.08;32646.88;5018752;28;46154;-87
2022/12/21 04:06:34;;;;;;;;;2.00;1.00;;;;;12.78;88.70;31958.91;5022083;28;45545;-87
2022/12/21 04:09:03;;;;;;;;;1.33;1.33;;;;;12.32;88.71;32700.25;5019304;28;45305;-87
2022/12/21 04:14:20;;;;;;;;;2.00;2.00;;;;;12.74;88.75;32059.41;5017407;28;45355;-86
2022/12/21 04:16:46;;;;;;;;;2.33;1.67;;;;;12.73;88.91;32986.84;5016668;28;46647;-86
2022/12/21 04:21:55;;;;;;;;;1.00;1.00;;;;;12.57;88.68;31300.91;5017073;28;45558;-86
2022/12/21 04:28:07;;;;;;;;;3.33;3.33;;;;;12.54;89.11;34997.34;5024481;28;45498;-87
2022/12/21 04:29:55;;;;;;;;;1.00;1.00;;;;;12.27;88.77;33290.78;5014982;28;45420;-87
2022/12/21 04:32:21;;;;;;;;;1.67;1.67;;;;;12.29;88.85;33307.75;5020001;28;45467;-86
2022/12/21 04:34:46;;;;;;;;;2.67;2.33;;;;;12.34;88.97;33113.97;5022153;28;45543;-87
2022/12/21 04:37:30;;;;;;;;;2.00;2.00;;;;;11.92;88.75;33181.06;5018375;28;45390;-87
2022/12/21 04:39:56;;;;;;;;;1.67;1.67;;;;;12.39;88.59;32862.06;5016676;28;46485;-86
2022/12/21 04:42:22;;;;;;;;;3.00;3.00;;;;;12.35;88.59;33309.03;5017334;28;45711;-87
2022/12/21 04:44:47;;;;;;;;;1.00;1.00;;;;;12.72;88.66;31169.88;5026190;28;46022;-85
2022/12/21 04:47:12;;;;;;;;;0.33;0.33;;;;;12.70;88.39;30348.91;5024137;28;45466;-86
2022/12/21 04:49:38;;;;;;;;;1.33;1.33;;;;;12.44;88.24;29331.72;5030210;28;45343;-86
2022/12/21 04:52:03;;;;;;;;;1.00;1.00;;;;;12.16;88.06;29561.06;5001161;28;45472;-86
2022/12/21 04:54:28;;;;;;;;;1.67;1.33;;;;;12.60;87.84;26727.72;5021734;28;45399;-86
2022/12/21 04:56:54;;;;;;;;;2.00;2.00;;;;;12.56;87.80;26613.16;5027120;28;45383;-86
2022/12/21 04:59:19;;;;;;;;;2.00;2.00;;;;;12.52;88.03;27107.19;5017886;28;45336;-86
2022/12/21 05:01:44;;;;;;;;;2.00;2.00;;;;;12.47;87.73;25223.56;5018244;28;45460;-86
2022/12/21 05:04:10;;;;;;;;;2.00;2.00;;;;;12.44;87.80;24650.44;5012332;28;47810;-86
2022/12/21 05:06:35;;;;;;;;;1.00;1.00;;;;;12.02;87.57;22986.22;5024140;28;45501;-86
2022/12/21 05:09:01;;;;;;;;;2.00;2.00;;;;;12.05;87.41;23210.19;5018419;28;45449;-85
2022/12/21 05:11:26;;;;;;;;;1.67;1.67;;;;;12.06;87.34;22529.50;5017273;28;45451;-85
2022/12/21 05:13:52;;;;;;;;;3.00;2.00;;;;;12.04;87.11;20742.84;5006555;28;48208;-85
2022/12/21 05:16:20;;;;;;;;;4.67;2.67;;;;;12.24;87.70;22513.53;5000329;28;45399;-87
2022/12/21 05:18:48;;;;;;;;;2.00;2.00;;;;;11.86;87.10;21994.94;5020472;28;45467;-87
2022/12/21 05:21:14;;;;;;;;;1.67;1.67;;;;;10.65;86.75;19521.69;5006461;28;45621;-86
2022/12/21 05:23:39;;;;;;;;;2.33;2.00;;;;;11.51;87.01;20484.34;5000964;28;47909;-85
2022/12/21 05:26:06;;;;;;;;;3.00;3.00;;;;;10.66;86.85;21465.53;5017046;28;45237;-85
2022/12/21 05:28:31;;;;;;;;;3.33;2.00;;;;;12.02;87.58;24731.25;5034141;28;45488;-85
2022/12/21 05:30:57;;;;;;;;;3.00;3.00;;;;;11.73;87.52;25892.09;4999945;28;45639;-85
2022/12/21 05:33:22;;;;;;;;;2.33;2.33;;;;;11.02;87.82;28699.66;4998307;28;45932;-85
2022/12/21 05:35:48;;;;;;;;;4.00;3.00;;;;;11.32;88.01;27328.91;5017157;28;45506;-85
2022/12/21 05:38:14;;;;;;;;;3.67;2.33;;;;;11.98;88.04;29116.09;5010932;28;45514;-85
2022/12/21 05:40:39;;;;;;;;;3.00;3.00;;;;;11.57;88.26;29700.75;4996611;28;45583;-86
2022/12/21 05:43:06;;;;;;;;;3.00;3.00;;;;;10.70;88.18;30220.06;5022662;28;45488;-86
2022/12/21 05:45:31;;;;;;;;;3.33;2.00;;;;;11.95;88.14;28886.53;5024720;28;45353;-86
2022/12/21 05:47:57;;;;;;;;;2.00;2.00;;;;;11.95;88.18;28348.78;5030028;28;45627;-86
2022/12/21 05:50:23;;;;;;;;;1.67;1.67;;;;;11.95;88.39;30484.16;5017893;28;45626;-85
2022/12/21 05:52:48;;;;;;;;;2.00;2.00;;;;;11.95;88.56;31366.00;5024611;28;46262;-85
2022/12/21 05:55:15;;;;;;;;;1.00;1.00;;;;;11.80;88.09;28624.47;5017562;28;45691;-85
2022/12/21 05:57:41;;;;;;;;;1.67;1.67;;;;;11.92;88.23;29257.44;5022134;28;45424;-84
2022/12/21 06:00:07;;;;;;;;;3.00;1.67;;;;;11.33;88.00;28639.41;5028360;28;45243;-87
2022/12/21 06:02:32;;;;;;;;;1.00;1.00;;;;;11.33;88.13;27172.22;5023205;28;46760;-87
2022/12/21 06:04:57;;;;;;;;;1.00;1.00;;;;;11.91;87.91;26767.91;5022325;28;46237;-87
2022/12/21 06:07:23;;;;;;;;;1.00;1.00;;;;;11.88;87.89;26383.94;5019928;28;45581;-87
2022/12/21 06:09:49;;;;;;;;;1.00;1.00;;;;;11.88;87.65;25579.06;5019019;28;45512;-88
2022/12/21 06:12:14;;;;;;;;;3.00;1.00;;;;;11.29;87.96;25855.56;5007764;28;48564;-85
2022/12/21 06:14:40;;;;;;;;;2.00;1.00;;;;;11.89;87.52;23515.13;5009395;28;45449;-85
2022/12/21 06:17:05;;;;;;;;;2.00;2.00;;;;;11.70;87.64;24646.03;5008139;28;46833;-84
2022/12/21 06:19:31;;;;;;;;;1.33;1.33;;;;;11.39;87.87;23944.03;5015731;28;47204;-84
2022/12/21 06:21:56;;;;;;;;;0.00;0.00;;;;;11.48;87.50;24251.31;5015298;28;45433;-85
2022/12/21 06:24:21;;;;;;;;;0.67;0.67;;;;;11.78;87.29;22536.19;5008559;28;46244;-85
2022/12/21 06:26:47;;;;;;;;;2.00;1.00;;;;;11.69;87.53;23354.47;5018760;28;46390;-85
2022/12/21 06:29:12;;;;;;;;;1.00;1.00;;;;;11.88;87.25;21265.13;4996613;28;45308;-85
2022/12/21 06:31:38;;;;;;;;;0.00;0.00;;;;;11.88;87.37;22516.84;5017348;28;46758;-86
2022/12/21 06:34:03;;;;;;;;;1.00;1.00;;;;;11.89;87.34;21420.19;5015440;28;46038;-85
2022/12/21 06:36:30;;;;;;;;;1.67;1.00;;;;;11.17;86.97;21169.59;5024104;28;45677;-85
2022/12/21 06:38:56;;;;;;;;;1.00;1.00;;;;;11.24;87.08;21376.00;5017918;28;45579;-85
2022/12/21 06:41:21;;;;;;;;;0.00;0.00;;;;;11.72;86.87;19702.19;5019351;28;45506;-85
2022/12/21 06:43:47;;;;;;;;;1.00;1.00;;;;;10.89;86.66;17934.72;5016333;28;46073;-85
2022/12/21 06:46:15;;;;;;;;;2.00;1.00;;;;;11.92;86.70;18947.88;5029230;28;45283;-85
2022/12/21 06:48:41;;;;;;;;;1.67;1.00;;;;;11.90;86.80;17364.59;5017782;28;45632;-85
2022/12/21 06:51:10;;;;;;;;;1.00;1.00;;;;;11.90;86.77;17045.53;4995140;28;47851;-86
2022/12/21 06:53:38;;;;;;;;;1.00;1.00;;;;;11.51;86.62;18622.19;5020480;28;45523;-89
2022/12/21 06:56:26;;;;;;;;;3.67;1.00;;;;;11.71;86.63;16971.41;4999325;28;45417;-89
2022/12/21 06:58:54;;;;;;;;;5.00;3.00;;;;;11.88;86.66;16399.03;5015019;28;45542;-90
2022/12/21 07:01:33;;;;;;;;;5.33;5.00;;;;;11.86;86.39;15352.88;5020829;28;46560;-85
2022/12/21 07:03:59;;;;;;;;;2.00;2.00;;;;;11.87;86.54;14932.41;5010101;28;45715;-85
2022/12/21 07:06:27;;;;;;;;;2.00;2.00;;;;;11.85;86.40;14594.69;5015881;28;45484;-86
2022/12/21 07:08:53;;;;;;;;;1.00;1.00;;;;;11.86;86.18;11815.31;5017958;28;45402;-85
2022/12/21 07:11:21;;;;;;;;;2.00;2.00;;;;;11.84;85.97;11593.00;5014818;28;45462;-85
2022/12/21 07:13:47;;;;;;;;;1.67;1.00;;;;;11.33;85.98;10115.03;5015331;28;45375;-85
2022/12/21 07:16:14;;;;;;;;;0.67;0.67;;;;;11.77;85.97;11155.44;5012197;28;45302;-85
2022/12/21 07:18:40;;;;;;;;;2.00;2.00;;;;;11.31;85.98;10677.94;5026237;28;46625;-85
2022/12/21 07:21:10;;;;;;;;;1.00;1.00;;;;;11.77;85.83;8211.81;5024809;28;47079;-85
2022/12/21 07:23:37;;;;;;;;;1.67;1.67;;;;;11.75;85.79;6620.56;5017953;28;45367;-85
2022/12/21 07:26:24;;;;;;;;;1.00;1.00;;;;;11.76;85.71;10058.94;5023470;28;45338;-84
2022/12/21 07:28:53;;;;;;;;;1.00;1.00;;;;;11.79;85.85;8509.59;5015437;28;45324;-84
2022/12/21 07:31:23;;;;;;;;;2.00;2.00;;;;;11.20;85.70;6768.31;5014671;28;46304;-88
2022/12/21 07:33:49;;;;;;;;;4.00;2.00;;;;;11.80;85.71;7862.81;5020016;28;45584;-87
2022/12/21 07:36:14;;;;;;;;;2.00;2.00;;;;;11.41;85.50;6156.66;5014849;28;45634;-87
2022/12/21 07:38:40;;;;;;;;;4.33;4.33;;;;;10.86;85.27;6335.78;4994140;28;45600;-87
2022/12/21 07:41:09;;;;;;;;;4.67;3.67;;;;;11.68;85.48;5576.72;5015298;28;45615;-87
2022/12/21 07:43:35;;;;;;;;;4.00;1.33;;;;;11.77;85.95;8068.34;4993291;28;45629;-87
2022/12/21 07:46:02;;;;;;;;;1.00;1.00;;;;;11.05;85.31;3904.47;5020111;28;45456;-86
2022/12/21 07:48:28;;;;;;;;;1.00;1.00;;;;;11.84;85.52;5678.09;5017769;28;45285;-86
2022/12/21 07:50:53;;;;;;;;;2.00;2.00;;;;;11.89;84.91;2064.00;5026140;28;45466;-87
2022/12/21 07:53:18;;;;;;;;;2.00;2.00;;;;;11.80;85.21;3258.94;5015668;28;45367;-85
2022/12/21 07:55:44;;;;;;;;;2.00;2.00;;;;;10.23;85.18;3115.59;5015113;28;45721;-87
2022/12/21 07:58:09;;;;;;;;;1.00;1.00;;;;;11.93;84.90;-1198.50;5020612;28;45510;-86
2022/12/21 08:00:37;;;;;;;;;3.33;2.00;;;;;11.00;84.85;-403.38;5014072;28;47181;-86
2022/12/21 08:03:06;;;;;;;;;2.00;2.00;;;;;11.66;85.12;2030.81;5011987;28;45339;-86
2022/12/21 08:05:32;;;;;;;;;4.00;3.00;;;;;10.81;84.99;2445.13;5007234;28;45519;-86
2022/12/21 08:07:58;;;;;;;;;4.00;3.00;;;;;11.98;85.08;-222.06;5000727;28;45644;-86
2022/12/21 08:10:24;;;;;;;;;1.67;1.67;;;;;11.65;84.97;278.66;5016210;28;46380;-86
2022/12/21 08:12:50;;;;;;;;;3.67;2.67;;;;;11.64;84.99;119.88;5025072;28;45459;-86
2022/12/21 08:15:15;;;;;;;;;2.00;2.00;;;;;12.04;84.54;-4516.03;5016044;28;45586;-86
2022/12/21 08:17:40;;;;;;;;;3.00;2.00;;;;;11.31;84.78;-2773.28;5000376;28;45605;-87
2022/12/21 08:20:07;;;;;;;;;3.00;1.67;;;;;11.64;84.28;-6607.13;5015253;28;48235;-86
2022/12/21 08:22:32;;;;;;;;;2.33;2.33;;;;;12.13;84.49;-4144.19;5000551;28;45680;-86
2022/12/21 08:24:57;;;;;;;;;2.67;2.67;;;;;12.16;84.33;-7182.03;5017601;28;45505;-86
2022/12/21 08:27:23;;;;;;;;;4.00;2.33;;;;;11.88;84.50;-6439.50;5000252;28;46634;-87
2022/12/21 08:29:48;;;;;;;;;1.00;1.00;;;;;12.19;84.12;-9173.25;5022710;28;45603;-86
2022/12/21 08:32:13;;;;;;;;;1.33;1.00;;;;;12.16;84.41;-8177.66;5019664;28;45570;-87
2022/12/21 08:34:39;;;;;;;;;3.00;2.00;;;;;11.54;83.53;-13665.56;5014618;28;45600;-86
2022/12/21 08:37:04;;;;;;;;;1.33;1.33;;;;;12.07;83.48;-15306.41;5018999;28;45450;-86
2022/12/21 08:39:29;;;;;;;;;2.67;2.67;;;;;11.90;83.11;-14335.81;5000029;28;47175;-89
2022/12/21 08:41:55;;;;;;;;;2.67;2.00;;;;;10.64;83.52;-13997.19;5003318;28;45468;-88
2022/12/21 08:44:20;;;;;;;;;3.67;2.33;;;;;11.82;83.40;-16670.53;5019184;28;45515;-88
2022/12/21 08:46:45;;;;;;;;;3.00;3.00;;;;;12.07;83.44;-12937.50;5019493;28;45588;-88
2022/12/21 08:49:11;;;;;;;;;5.33;3.67;;;;;11.19;83.38;-17112.41;5015722;28;46551;-88
2022/12/21 08:51:37;;;;;;;;;3.00;2.00;;;;;12.03;82.88;-17818.25;5016818;28;45604;-88
2022/12/21 08:54:04;;;;;;;;;3.00;3.00;;;;;12.45;83.13;-17913.84;5019153;28;45460;-87
2022/12/21 08:56:29;;;;;;;;;2.67;2.67;;;;;12.07;83.21;-17274.81;4999494;28;45467;-87
2022/12/21 08:58:55;;;;;;;;;3.00;1.00;;;;;12.31;82.86;-19305.31;5013174;28;48548;-88
2022/12/21 09:01:22;;;;;;;;;1.00;1.00;;;;;11.64;82.32;-19522.78;5018061;28;45786;-86
2022/12/21 09:03:47;;;;;;;;;3.00;1.33;;;;;12.11;82.74;-18509.69;5024349;28;45485;-86
2022/12/21 09:06:12;;;;;;;;;4.67;3.00;;;;;12.28;82.46;-19539.63;5025853;28;45460;-86
2022/12/21 09:08:39;;;;;;;;;4.00;2.67;;;;;12.47;82.52;-19544.72;5008961;28;47083;-87
2022/12/21 09:11:08;;;;;;;;;3.33;1.33;;;;;12.39;82.40;-19542.59;5000442;28;45438;-86
2022/12/21 09:13:34;;;;;;;;;3.00;1.00;;;;;12.06;82.82;-19158.91;5017207;28;45332;-86
2022/12/21 09:15:59;;;;;;;;;2.00;2.00;;;;;12.51;82.63;-19545.81;5005008;28;45775;-86
2022/12/21 09:18:24;;;;;;;;;1.33;1.33;;;;;12.50;82.39;-19545.53;5014092;28;45977;-87
2022/12/21 09:20:50;;;;;;;;;2.00;2.00;;;;;12.50;82.43;-19545.41;5019388;28;45788;-87
2022/12/21 09:23:17;;;;;;;;;2.00;2.00;;;;;12.20;82.56;-19537.75;5014574;28;45606;-86
2022/12/21 09:25:42;;;;;;;;;2.00;2.00;;;;;11.92;82.96;-18471.34;5022814;28;45533;-86
2022/12/21 09:28:08;;;;;;;;;2.00;2.00;;;;;12.26;82.30;-19539.22;5018756;28;45489;-86
2022/12/21 09:30:33;;;;;;;;;2.00;2.00;;;;;12.02;82.88;-18569.75;5021623;28;45459;-87
2022/12/21 09:32:59;;;;;;;;;2.67;2.00;;;;;12.45;82.79;-18743.78;5008327;28;45692;-86
2022/12/21 09:35:24;;;;;;;;;3.00;3.00;;;;;12.45;82.96;-18390.94;5005558;28;45557;-86
2022/12/21 09:37:50;;;;;;;;;2.33;2.33;;;;;12.25;82.64;-19480.13;5019354;28;45560;-86
2022/12/21 09:40:18;;;;;;;;;3.67;2.00;;;;;12.24;82.96;-18334.09;5015373;28;45419;-86
2022/12/21 09:43:06;;;;;;;;;4.67;3.00;;;;;11.96;82.98;-17959.22;5014299;28;45407;-85
2022/12/21 09:46:04;;;;;;;;;3.00;3.00;;;;;12.68;83.13;-18484.91;5016556;28;45523;-87
2022/12/21 09:48:38;;;;;;;;;2.33;2.33;;;;;12.71;83.17;-18599.56;5020864;28;48375;-87
2022/12/21 09:51:23;;;;;;;;;3.33;3.00;;;;;12.68;83.33;-17169.34;5015402;28;45369;-87
2022/12/21 09:53:54;;;;;;;;;4.00;2.00;;;;;12.21;82.92;-17825.06;5013360;28;45462;-87
2022/12/21 09:56:22;;;;;;;;;3.67;3.00;;;;;12.67;83.11;-17392.19;5021436;28;45666;-87
2022/12/21 09:58:50;;;;;;;;;2.67;2.33;;;;;12.20;83.71;-16032.91;5016289;28;45737;-88
2022/12/21 10:01:27;;;;;;;;;5.00;4.00;;;;;12.67;83.27;-16434.50;5014012;28;45467;-87
2022/12/21 10:04:25;;;;;;;;;3.67;2.67;;;;;12.68;83.33;-16016.78;4997858;28;45507;-89
2022/12/21 10:07:07;;;;;;;;;5.00;3.00;;;;;12.74;83.31;-16480.06;5005787;28;45479;-88
2022/12/21 10:09:50;;;;;;;;;2.67;2.67;;;;;12.29;83.43;-15134.25;5008515;28;47385;-88
2022/12/21 10:12:29;;;;;;;;;4.00;3.33;;;;;12.84;83.64;-15196.84;5019291;28;45418;-87
2022/12/21 10:15:00;;;;;;;;;3.00;3.00;;;;;12.15;83.33;-15320.97;5030792;28;45825;-88
2022/12/21 10:17:37;;;;;;;;;5.00;5.00;;;;;12.88;83.36;-16501.41;5004505;28;45608;-87
2022/12/21 10:20:05;;;;;;;;;3.67;3.00;;;;;12.90;83.34;-16496.53;5015524;28;45549;-88
2022/12/21 10:22:42;;;;;;;;;3.00;3.00;;;;;11.77;83.09;-18407.97;5023050;28;45442;-87
2022/12/21 10:25:18;;;;;;;;;4.00;2.00;;;;;12.89;83.15;-17687.94;5009349;28;45383;-87
2022/12/21 10:27:50;;;;;;;;;3.00;2.67;;;;;12.89;83.40;-16260.03;5016670;28;45522;-87
2022/12/21 10:30:16;;;;;;;;;2.67;1.67;;;;;12.21;83.09;-15493.41;5018219;28;46351;-87
2022/12/21 10:32:45;;;;;;;;;3.00;3.00;;;;;12.58;83.54;-15490.44;5001112;28;46009;-87
2022/12/21 10:35:22;;;;;;;;;2.00;2.00;;;;;12.95;83.56;-16149.66;5006619;28;45641;-87
2022/12/21 10:37:56;;;;;;;;;4.00;4.00;;;;;12.51;83.50;-14481.69;5014451;28;45519;-87
2022/12/21 10:40:27;;;;;;;;;4.00;3.00;;;;;12.55;83.81;-14601.97;5015451;28;46369;-87
2022/12/21 10:42:53;;;;;;;;;4.00;4.00;;;;;12.55;83.43;-14498.00;5018534;28;45463;-88
2022/12/21 10:45:22;;;;;;;;;1.67;1.67;;;;;12.07;83.50;-15501.06;4996798;28;45997;-86
2022/12/21 10:47:48;;;;;;;;;4.67;4.00;;;;;12.93;83.03;-16523.06;4996151;28;45709;-86
2022/12/21 10:50:21;;;;;;;;;3.67;3.67;;;;;13.08;82.99;-18089.72;5011996;28;46307;-86
2022/12/21 10:52:52;;;;;;;;;3.33;2.00;;;;;13.09;82.98;-18687.09;4990715;28;46885;-86
2022/12/21 10:55:17;;;;;;;;;2.67;2.00;;;;;13.07;82.75;-19254.88;5014974;28;45501;-87
2022/12/21 10:57:44;;;;;;;;;2.00;1.00;;;;;12.63;83.29;-16786.72;5013923;28;45559;-87
2022/12/21 11:00:36;;;;;;;;;4.00;3.00;;;;;13.12;82.89;-19357.44;5002013;28;47505;-87
2022/12/21 11:03:36;;;;;;;;;3.33;2.33;;;;;13.18;82.94;-19013.63;5019201;28;45735;-87
2022/12/21 11:06:12;;;;;;;;;3.00;3.00;;;;;12.17;82.91;-19420.94;4933442;28;45412;-86
2022/12/21 11:08:45;;;;;;;;;2.67;2.67;;;;;12.86;82.60;-19555.09;4935300;28;45500;-87
2022/12/21 11:11:35;;;;;;;;;2.67;2.67;;;;;11.96;82.99;-17829.63;4951346;28;45529;-87
2022/12/21 11:14:13;;;;;;;;;3.67;3.67;;;;;12.90;82.90;-19323.19;4933629;28;45881;-87
2022/12/21 11:16:39;;;;;;;;;3.67;3.67;;;;;13.07;83.11;-18182.81;4948654;28;45796;-87
2022/12/21 11:19:11;;;;;;;;;2.67;2.67;;;;;13.15;83.00;-18267.88;4935231;28;45526;-85
2022/12/21 11:21:45;;;;;;;;;4.00;4.00;;;;;13.22;83.26;-17669.72;4948595;28;47561;-86
2022/12/21 11:24:14;;;;;;;;;5.67;4.33;;;;;13.36;82.96;-19288.25;4950294;28;45540;-86
2022/12/21 11:26:45;;;;;;;;;3.33;3.33;;;;;13.21;82.86;-19460.94;4949570;28;45582;-85
2022/12/21 11:29:23;;;;;;;;;4.00;4.00;;;;;13.43;82.62;-19570.03;4951594;28;45598;-86
2022/12/21 11:31:51;;;;;;;;;3.00;3.00;;;;;12.50;81.84;-19545.53;4947476;28;45601;-85
2022/12/21 11:34:29;;;;;;;;;5.33;4.00;;;;;12.63;81.49;-19548.91;4948346;28;45520;-86
2022/12/21 11:37:04;;;;;;;;;7.00;4.67;;;;;13.43;81.34;-19569.91;4948233;28;45551;-86
2022/12/21 11:39:29;;;;;;;;;4.00;4.00;;;;;13.66;81.10;-19575.94;4937581;28;45682;-86
2022/12/21 11:41:55;;;;;;;;;4.00;4.00;;;;;13.34;81.53;-19567.59;4989019;28;46292;-86
2022/12/21 11:44:29;;;;;;;;;7.00;5.67;;;;;12.87;81.63;-19555.38;5011150;28;45427;-86
2022/12/21 11:47:24;;;;;;;;;5.33;3.00;;;;;13.68;81.32;-19576.50;4994058;28;46906;-86
2022/12/21 11:50:08;;;;;;;;;6.33;4.67;;;;;13.70;81.33;-19577.16;4996167;28;45762;-86
2022/12/21 11:53:32;;;;;;;;;3.33;3.33;;;;;13.76;81.45;-19578.50;5012211;28;46135;-85
2022/12/21 11:56:16;;;;;;;;;4.00;3.67;;;;;13.75;81.32;-19578.38;4944660;28;45930;-86
2022/12/21 11:59:23;;;;;;;;;6.67;3.67;;;;;13.71;81.21;-19577.44;4953138;28;45530;-85